INDIA METEOROLOGICAL DEPARTMENT, R.M.C. NEW DELHI
Dated:14-07-2020
METARS


Agartala   
VEAT 140004Z 00000KT 4000 BR FEW010 SCT018 BKN100 27/26 Q1003 NOSIG=
Ahmedabad  
VAAH 140000Z 23003KT 4000 HZ FEW020 SCT080 27/26 Q1002 NOSIG=
Allahabad  
VEAB 132330Z 27010KT 1500 +TSRA BKN008 SCT015 FEW025CB OVC090 24/24 Q1000 NOSIG=
Bangalore  
VOBL 140000Z 29006KT 6000 SCT012 BKN080 22/22 Q1010 NOSIG=
Bhubaneswar
VEBS 140000Z 00000KT 3500 BR SCT018 FEW030CB OVC090 27/26 Q1001 BECMG 5000 HZ=
Chennai    
VOMM 140000Z 23006KT 5000 BR FEW020 FEW025TCU SCT100 27/24 Q1004 NOSIG=
Coimbatore 
VOCB 140000Z NIL=
Colombo    
VCBI 132340Z 17005KT 9999 SCT018 28/26 Q1006 NOSIG=
Delhi      
VIDP 140000Z 00000KT 3000 BR SCT100 29/25 Q1000 NOSIG =
Dehradun   
VIDN 140000Z 05003KT 3000 BR SCT030 25/23 Q1002=
Gauhati    
VEGT 140000Z 00000KT 3000 BR FEW008 SCT018 FEW025CB BKN100 29/29 Q1002 NOSIG=
Gaya       
VEGY 140000Z 00000KT 2500 BR SCT018 BKN100 27/26 Q1000 =
Hyderabad  
VOHS 140000Z 24005KT 5000 BR SCT015 OVC080 23/22 Q1007 NOSIG=
Imphal     
VEIM 140000Z 00000KT 3000 BR FEW008 SCT018 BKN090 23/23 Q1008 NOSIG=
Indore     
VAID 132300Z 27003KT 4000 BR FEW020 25/24 Q1004 NOSIG=
Jaipur     
VIJP 140000Z 00000KT 3000 HZ SCT030 SCT100 28/25 Q1002 NOSIG=
Kochi      
VOCI 140000Z 00000KT 3000 BR SCT012 BKN080 26/24 Q1006 NOSIG=
Kolkata    
VECC 140000Z 11004KT 2800 HZ SCT018 FEW030CB BKN100 29/28 Q1000 NOSIG=
Kozhikode  
VOCL 140000Z 33004KT 5000 BR SCT012 BKN080 25/23 Q1006 NOSIG=
Lucknow    
VILK 132330Z 00000KT 3000 -DZ BKN018 FEW030CB OVC090 24/21 Q0998 NOSIG=
Mohanbari  
VEMN 140000Z 05003KT 4000 BR SCT020 BKN100 27/25 Q1003 BECMG 5000 HZ=
Mumbai     
VABB 140000Z 17007KT 2500 HZ SCT018 FEW030CB BKN090 27/26 Q1002 NOSIG=
Nagpur     
VANP 140000Z 23003KT 1800 BR SCT018 BKN090 26/26 Q1003 NOSIG=
Patna      
VEPT 140000Z 11005KT 3000 HZ FEW018 SCT100 27/25 Q0999 NOSIG=
Ranchi     
VERC 140000Z 00000KT 1200 BR SCT015 BKN100 25/24 Q1004 NOSIG=
Trichy     
VOTR 140000Z 25004KT 6000 FEW016 SCT100 27/23 Q1005 NOSIG=
Trivandrum 
VOTV 140000Z 33004KT 3000 BR FEW012 SCT080 27/24 Q1006 NOSIG=
Varanasi   
VEBN 140000Z 00000KT 2500 BR SCT020 FE030CB BKN100 29/26 Q0999 BCMG 1500 RA=
Vizag      
VOVZ 132300Z VRB02KT 5000 DZ BR SCT014 OVC080 25/25 Q1001 TEMPO -RA =
Male       
VRMM 132310Z NIL=
Gan        
VRMG 132300Z 32005KT 9999 TS FEW017 FEW018CB BKN270 28/25 Q1007 RETS CB ENE,E,SW TEMPO 6000 -TSRA=
Kathmandu  
VNKT 140000Z NIL=
Dhaka      
VGHS 140000Z 19004KT 3500 DZ SCT010 BKN100 27/25 Q1002 TEMPO RA=
Colombo    
VCBI 132340Z 17005KT 9999 SCT018 28/26 Q1006 NOSIG=
Karachi    
OPKC 132325Z 28010KT 6000 SCT020 30/24 Q1000 NOSIG=
Lahore     
OPLA 132325Z 18005KT 4000 FU NSC 28/23 Q0999 RMK A29.51=
Gorakhpur  
VEGK 132330Z 14003KT 5000 -TSRA SCT010 SCT015 FEW030CB BKN090 25/25 Q1000 NOSIG=
Agra       
VIAG 132330Z VRB02KT 6000 FEW025 BKN200 27/25 Q1000 NOSIG=
Bagdogra   
VEBD 132330Z VRB02KT 5000 BR FEW015 SCT025 BKN100 26/25 Q1002 TEMPO RAIN=
Gwalior    
VIGR 132330Z 26005KT 6000 FEW030 SCT090 BKN250 29/26 Q1000 NOSIG=
Pune       
VAPO 132330Z 25005KT 6000 SCT025 BKN090 23/22 Q1006 NOSIG=
Jamnagar   
VAJM 132330Z 23003KT 6000 FEW015 SCT250 28/27 Q1000 NOSIG=
Pathankot   
VIPK 132330Z VRB01KT 6000 FEW030 BKN090 28/26 Q1001 NOSIG=